Terminal Aerodrome Forecast
Issued by NWS

Home | Current Version | Previous Version | Text Only | Print | Product List | Glossary On
Versions: 1 2 3 4 5 6 7 8 9 10 11 12 13 14 15 16 17 18 19 20 21 22
201
FTUS46 KLOX 191731
TAFSBP
TAF
KSBP 191731Z 1918/2018 VRB03KT P6SM FEW015 BKN040
     FM192000 30012KT P6SM SCT050
     FM200300 VRB03KT P6SM SCT025 BKN050
     FM200800 15010KT 5SM -RA BR BKN025 OVC040
     FM201200 15012G20KT 3SM RA BR SCT007 OVC015=

USA.gov is the U.S. government's official web portal to all federal, state and local government web resources and services.